Time;durP1;ratioP1;P1;durP2;ratioP2;P2;SDS_P1;SDS_P2;PMS_P1;PMS_P2;Temp;Humidity;BMP_temperature;BMP_pressure;BME280_temperature;BME280_humidity;BME280_pressure;Samples;Min_cycle;Max_cycle;Signal;HPM_P1;HPM_P2
2022/02/27 00:00:59;;;;;;;;;;;;;;;;;;5055291;28;20019;-79
2022/02/27 00:03:24;;;;;;;;;;;;;;;;;;5075104;28;19922;-79
2022/02/27 00:05:50;;;;;;;;;;;;;;;;;;5067591;28;19917;-78
2022/02/27 00:08:15;;;;;;;;;;;;;;;;;;5054719;28;19923;-80
2022/02/27 00:10:41;;;;;;;;;;;;;;;;;;5054633;28;20020;-79
2022/02/27 00:13:07;;;;;;;;;;;;;;;;;;5054811;28;19926;-79
2022/02/27 00:15:32;;;;;;;;;;;;;;;;;;5054627;28;19917;-79
2022/02/27 00:17:57;;;;;;;;;;;;;;;;;;5054701;28;19917;-79
2022/02/27 00:20:23;;;;;;;;;;;;;;;;;;5054810;28;19920;-80
2022/02/27 00:22:48;;;;;;;;;;;;;;;;;;5074560;28;20399;-79
2022/02/27 00:25:14;;;;;;;;;;;;;;;;;;5074707;28;19941;-79
2022/02/27 00:27:39;;;;;;;;;;;;;;;;;;5074343;28;19917;-79
2022/02/27 00:30:07;;;;;;;;;;;;;;;;;;5074365;28;19946;-79
2022/02/27 00:32:32;;;;;;;;;;;;;;;;;;5074268;28;19942;-79
2022/02/27 00:34:58;;;;;;;;;;;;;;;;;;5074349;28;20022;-78
2022/02/27 00:37:23;;;;;;;;;;;;;;;;;;5074047;28;19970;-78
2022/02/27 00:39:49;;;;;;;;;;;;;;;;;;5074364;28;19916;-79
2022/02/27 00:42:14;;;;;;;;;;;;;;;;;;5074297;28;20291;-78
2022/02/27 00:44:40;;;;;;;;;;;;;;;;;;5074157;28;19920;-80
2022/02/27 00:47:05;;;;;;;;;;;;;;;;;;5074556;28;20395;-79
2022/02/27 00:49:31;;;;;;;;;;;;;;;;;;5074160;28;19916;-79
2022/02/27 00:51:56;;;;;;;;;;;;;;;;;;5074082;28;19920;-79
2022/02/27 00:54:24;;;;;;;;;;;;;;;;;;5074197;28;19916;-78
2022/02/27 00:56:49;;;;;;;;;;;;;;;;;;5056155;28;20362;-79
2022/02/27 00:59:15;;;;;;;;;;;;;;;;;;5071972;28;20007;-79
2022/02/27 01:01:40;;;;;;;;;;;;;;;;;;5059584;28;20372;-79
2022/02/27 01:04:06;;;;;;;;;;;;;;;;;;5073981;28;19917;-81
2022/02/27 01:06:31;;;;;;;;;;;;;;;;;;5074069;28;19916;-80
2022/02/27 01:08:59;;;;;;;;;;;;;;;;;;5073878;28;19916;-79
2022/02/27 01:11:26;;;;;;;;;;;;;;;;;;5073664;28;19943;-79
2022/02/27 01:13:52;;;;;;;;;;;;;;;;;;5073851;28;19924;-80
2022/02/27 01:16:18;;;;;;;;;;;;;;;;;;5073824;28;19919;-79
2022/02/27 01:18:43;;;;;;;;;;;;;;;;;;5073604;28;20043;-79
2022/02/27 01:21:09;;;;;;;;;;;;;;;;;;5073705;28;19917;-80
2022/02/27 01:23:34;;;;;;;;;;;;;;;;;;5073674;28;19920;-80
2022/02/27 01:26:00;;;;;;;;;;;;;;;;;;5073756;28;19922;-81
2022/02/27 01:28:25;;;;;;;;;;;;;;;;;;5073566;28;19916;-81
2022/02/27 01:30:51;;;;;;;;;;;;;;;;;;5073706;28;19916;-79
2022/02/27 01:33:16;;;;;;;;;;;;;;;;;;5073582;28;19917;-80
2022/02/27 01:35:41;;;;;;;;;;;;;;;;;;5073481;28;19924;-80
2022/02/27 01:38:07;;;;;;;;;;;;;;;;;;5073481;28;19969;-81
2022/02/27 01:40:32;;;;;;;;;;;;;;;;;;5055382;28;19975;-80
2022/02/27 01:42:59;;;;;;;;;;;;;;;;;;5073883;28;20043;-79
2022/02/27 01:45:24;;;;;;;;;;;;;;;;;;5073627;28;19974;-80
2022/02/27 01:47:49;;;;;;;;;;;;;;;;;;5073695;28;19916;-79
2022/02/27 01:50:15;;;;;;;;;;;;;;;;;;5077621;28;19986;-80
2022/02/27 01:52:40;;;;;;;;;;;;;;;;;;5077361;28;19916;-80
2022/02/27 01:55:06;;;;;;;;;;;;;;;;;;5077541;28;20307;-79
2022/02/27 01:57:31;;;;;;;;;;;;;;;;;;5077638;28;20287;-80
2022/02/27 01:59:57;;;;;;;;;;;;;;;;;;5077510;28;19916;-80
2022/02/27 02:02:23;;;;;;;;;;;;;;;;;;5077308;28;20388;-78
2022/02/27 02:04:48;;;;;;;;;;;;;;;;;;5077475;28;19916;-79
2022/02/27 02:07:14;;;;;;;;;;;;;;;;;;5077225;28;19917;-79
2022/02/27 02:09:39;;;;;;;;;;;;;;;;;;5077199;28;19959;-80
2022/02/27 02:12:06;;;;;;;;;;;;;;;;;;5076735;28;20331;-80
2022/02/27 02:14:32;;;;;;;;;;;;;;;;;;5076903;28;19921;-81
2022/02/27 02:16:57;;;;;;;;;;;;;;;;;;5076970;28;19935;-80
2022/02/27 02:19:24;;;;;;;;;;;;;;;;;;5077061;28;19946;-79
2022/02/27 02:21:50;;;;;;;;;;;;;;;;;;5076905;28;19917;-80
2022/02/27 02:24:16;;;;;;;;;;;;;;;;;;5076775;28;19916;-79
2022/02/27 02:26:45;;;;;;;;;;;;;;;;;;5058784;28;20002;-78
2022/02/27 02:29:12;;;;;;;;;;;;;;;;;;5076721;28;19917;-78
2022/02/27 02:31:38;;;;;;;;;;;;;;;;;;5076701;28;19916;-81
2022/02/27 02:34:04;;;;;;;;;;;;;;;;;;5076611;28;19970;-80
2022/02/27 02:36:30;;;;;;;;;;;;;;;;;;5076601;28;19970;-80
2022/02/27 02:38:56;;;;;;;;;;;;;;;;;;5076409;28;19916;-80
2022/02/27 02:41:22;;;;;;;;;;;;;;;;;;5076561;28;19916;-79
2022/02/27 02:43:47;;;;;;;;;;;;;;;;;;5076502;28;19924;-80
2022/02/27 02:46:13;;;;;;;;;;;;;;;;;;5076469;28;19920;-81
2022/02/27 02:48:38;;;;;;;;;;;;;;;;;;5076353;28;19916;-79
2022/02/27 02:51:04;;;;;;;;;;;;;;;;;;5061192;28;20281;-80
2022/02/27 02:53:33;;;;;;;;;;;;;;;;;;5056896;28;20281;-81
2022/02/27 02:56:01;;;;;;;;;;;;;;;;;;5056635;28;20294;-80
2022/02/27 02:58:26;;;;;;;;;;;;;;;;;;5039019;28;19916;-80
2022/02/27 03:00:52;;;;;;;;;;;;;;;;;;5056499;28;20320;-79
2022/02/27 03:03:17;;;;;;;;;;;;;;;;;;5056629;28;20365;-79
2022/02/27 03:05:42;;;;;;;;;;;;;;;;;;5039090;28;19943;-78
2022/02/27 03:08:08;;;;;;;;;;;;;;;;;;5056287;28;20297;-80
2022/02/27 03:10:33;;;;;;;;;;;;;;;;;;5056171;28;19920;-79
2022/02/27 03:12:59;;;;;;;;;;;;;;;;;;5056140;28;19917;-79
2022/02/27 03:15:24;;;;;;;;;;;;;;;;;;5056198;28;19924;-79
2022/02/27 03:17:50;;;;;;;;;;;;;;;;;;5056041;28;19917;-81
2022/02/27 03:20:15;;;;;;;;;;;;;;;;;;5056246;28;19916;-80
2022/02/27 03:22:40;;;;;;;;;;;;;;;;;;5056049;28;19917;-79
2022/02/27 03:25:06;;;;;;;;;;;;;;;;;;5056068;28;19917;-79
2022/02/27 03:27:31;;;;;;;;;;;;;;;;;;5055904;28;19917;-79
2022/02/27 03:29:57;;;;;;;;;;;;;;;;;;5056131;28;19929;-82
2022/02/27 03:32:22;;;;;;;;;;;;;;;;;;5055960;28;20250;-80
2022/02/27 03:34:47;;;;;;;;;;;;;;;;;;5055690;28;19924;-79
2022/02/27 03:37:13;;;;;;;;;;;;;;;;;;5037985;28;19931;-79
2022/02/27 03:39:38;;;;;;;;;;;;;;;;;;5056053;28;20360;-82
2022/02/27 03:42:04;;;;;;;;;;;;;;;;;;5055618;28;20368;-79
2022/02/27 03:44:29;;;;;;;;;;;;;;;;;;5037818;28;19924;-78
2022/02/27 03:46:55;;;;;;;;;;;;;;;;;;5055559;28;19916;-79
2022/02/27 03:49:20;;;;;;;;;;;;;;;;;;5055756;28;20292;-78
2022/02/27 03:51:45;;;;;;;;;;;;;;;;;;5055761;28;19924;-79
2022/02/27 03:54:11;;;;;;;;;;;;;;;;;;5055706;28;19923;-78
2022/02/27 03:56:36;;;;;;;;;;;;;;;;;;5055173;28;20003;-82
2022/02/27 03:59:02;;;;;;;;;;;;;;;;;;5055014;28;19974;-79
2022/02/27 04:01:27;;;;;;;;;;;;;;;;;;5055106;28;19917;-79
2022/02/27 04:03:53;;;;;;;;;;;;;;;;;;5055017;28;20019;-79
2022/02/27 04:06:18;;;;;;;;;;;;;;;;;;5055006;28;20331;-80
2022/02/27 04:08:43;;;;;;;;;;;;;;;;;;5054812;28;19921;-79
2022/02/27 04:11:09;;;;;;;;;;;;;;;;;;5053888;28;19921;-79
2022/02/27 04:13:34;;;;;;;;;;;;;;;;;;5037133;28;19963;-80
2022/02/27 04:16:00;;;;;;;;;;;;;;;;;;5054764;28;19935;-79
2022/02/27 04:18:25;;;;;;;;;;;;;;;;;;5054526;28;20015;-79
2022/02/27 04:20:51;;;;;;;;;;;;;;;;;;5054593;28;19917;-78
2022/02/27 04:23:16;;;;;;;;;;;;;;;;;;5054749;28;20299;-78
2022/02/27 04:25:42;;;;;;;;;;;;;;;;;;5054606;28;19962;-79
2022/02/27 04:28:07;;;;;;;;;;;;;;;;;;5054474;28;19924;-79
2022/02/27 04:30:33;;;;;;;;;;;;;;;;;;5054325;28;20450;-79
2022/02/27 04:32:58;;;;;;;;;;;;;;;;;;5054727;28;19919;-78
2022/02/27 04:35:24;;;;;;;;;;;;;;;;;;5036603;28;20008;-78
2022/02/27 04:37:49;;;;;;;;;;;;;;;;;;5054520;28;19924;-78
2022/02/27 04:40:15;;;;;;;;;;;;;;;;;;5054296;28;20008;-78
2022/02/27 04:42:41;;;;;;;;;;;;;;;;;;5054177;28;19959;-78
2022/02/27 04:45:08;;;;;;;;;;;;;;;;;;5054291;28;19921;-78
2022/02/27 04:47:33;;;;;;;;;;;;;;;;;;5054146;28;19942;-79
2022/02/27 04:49:59;;;;;;;;;;;;;;;;;;5054371;28;19916;-77
2022/02/27 04:52:24;;;;;;;;;;;;;;;;;;5054600;28;20300;-78
2022/02/27 04:54:50;;;;;;;;;;;;;;;;;;5054308;28;19935;-77
2022/02/27 04:57:15;;;;;;;;;;;;;;;;;;5054246;28;20399;-80
2022/02/27 04:59:40;;;;;;;;;;;;;;;;;;5054399;28;19916;-79
2022/02/27 05:02:06;;;;;;;;;;;;;;;;;;5053998;28;19924;-80
2022/02/27 05:04:32;;;;;;;;;;;;;;;;;;5059703;28;19916;-77
2022/02/27 05:06:58;;;;;;;;;;;;;;;;;;5061569;28;20015;-77
2022/02/27 05:09:23;;;;;;;;;;;;;;;;;;5062105;28;19959;-78
2022/02/27 05:11:49;;;;;;;;;;;;;;;;;;5062135;28;19921;-79
2022/02/27 05:14:15;;;;;;;;;;;;;;;;;;5056319;28;20003;-79
2022/02/27 05:16:41;;;;;;;;;;;;;;;;;;5054186;28;20274;-79
2022/02/27 05:19:07;;;;;;;;;;;;;;;;;;5053905;28;20335;-78
2022/02/27 05:21:32;;;;;;;;;;;;;;;;;;5053967;28;19917;-78
2022/02/27 05:23:58;;;;;;;;;;;;;;;;;;5054045;28;19939;-78
2022/02/27 05:26:23;;;;;;;;;;;;;;;;;;5036177;28;19921;-78
2022/02/27 05:28:49;;;;;;;;;;;;;;;;;;5054067;28;19917;-78
2022/02/27 05:31:14;;;;;;;;;;;;;;;;;;5036190;28;19921;-77
2022/02/27 05:33:40;;;;;;;;;;;;;;;;;;5053818;28;19917;-79
2022/02/27 05:36:06;;;;;;;;;;;;;;;;;;5054132;28;19943;-76
2022/02/27 05:38:31;;;;;;;;;;;;;;;;;;5053780;28;19923;-78
2022/02/27 05:40:56;;;;;;;;;;;;;;;;;;5054066;28;20315;-77
2022/02/27 05:43:22;;;;;;;;;;;;;;;;;;5053932;28;19967;-78
2022/02/27 05:45:47;;;;;;;;;;;;;;;;;;5053866;28;20284;-78
2022/02/27 05:48:13;;;;;;;;;;;;;;;;;;5053855;28;20312;-78
2022/02/27 05:50:38;;;;;;;;;;;;;;;;;;5053635;28;19920;-79
2022/02/27 05:53:04;;;;;;;;;;;;;;;;;;5035966;28;19917;-78
2022/02/27 05:55:29;;;;;;;;;;;;;;;;;;5053872;28;19939;-77
2022/02/27 05:57:55;;;;;;;;;;;;;;;;;;5053557;28;19917;-78
2022/02/27 06:00:20;;;;;;;;;;;;;;;;;;5053762;28;19917;-79
2022/02/27 06:02:46;;;;;;;;;;;;;;;;;;5053633;28;19916;-78
2022/02/27 06:05:11;;;;;;;;;;;;;;;;;;5053954;28;19921;-79
2022/02/27 06:07:37;;;;;;;;;;;;;;;;;;5053599;28;19940;-79
2022/02/27 06:10:03;;;;;;;;;;;;;;;;;;5053612;28;19921;-79
2022/02/27 06:12:28;;;;;;;;;;;;;;;;;;5053603;28;20381;-77
2022/02/27 06:14:54;;;;;;;;;;;;;;;;;;5053507;28;19952;-79
2022/02/27 06:17:19;;;;;;;;;;;;;;;;;;5053365;28;19921;-77
2022/02/27 06:19:44;;;;;;;;;;;;;;;;;;5062613;28;20280;-79
2022/02/27 06:22:10;;;;;;;;;;;;;;;;;;5055199;28;19913;-80
2022/02/27 06:24:35;;;;;;;;;;;;;;;;;;5067291;28;20021;-81
2022/02/27 06:27:01;;;;;;;;;;;;;;;;;;5072399;28;19917;-78
2022/02/27 06:29:26;;;;;;;;;;;;;;;;;;5070981;28;19912;-79
2022/02/27 06:31:52;;;;;;;;;;;;;;;;;;5073465;28;19916;-77
2022/02/27 06:34:17;;;;;;;;;;;;;;;;;;5073414;28;20382;-78
2022/02/27 06:36:43;;;;;;;;;;;;;;;;;;5060976;28;19944;-81
2022/02/27 06:39:08;;;;;;;;;;;;;;;;;;5055424;28;20000;-80
2022/02/27 06:41:34;;;;;;;;;;;;;;;;;;5038857;28;19955;-79
2022/02/27 06:43:59;;;;;;;;;;;;;;;;;;5059583;28;19920;-81
2022/02/27 06:46:24;;;;;;;;;;;;;;;;;;5075996;28;20062;-78
2022/02/27 06:48:50;;;;;;;;;;;;;;;;;;5076768;28;20333;-80
2022/02/27 06:51:15;;;;;;;;;;;;;;;;;;5076863;28;19923;-78
2022/02/27 06:53:41;;;;;;;;;;;;;;;;;;5076917;28;19916;-80
2022/02/27 06:56:06;;;;;;;;;;;;;;;;;;5076627;28;19924;-81
2022/02/27 06:58:32;;;;;;;;;;;;;;;;;;5076468;28;20281;-81
2022/02/27 07:00:57;;;;;;;;;;;;;;;;;;5062052;28;19924;-80
2022/02/27 07:03:22;;;;;;;;;;;;;;;;;;5056566;28;20436;-80
2022/02/27 07:05:48;;;;;;;;;;;;;;;;;;5056420;28;20277;-81
2022/02/27 07:08:13;;;;;;;;;;;;;;;;;;5056251;28;20361;-80
2022/02/27 07:10:39;;;;;;;;;;;;;;;;;;5056249;28;20286;-80
2022/02/27 07:13:04;;;;;;;;;;;;;;;;;;5056471;28;19924;-75
2022/02/27 07:15:30;;;;;;;;;;;;;;;;;;5058945;28;19921;-78
2022/02/27 07:17:56;;;;;;;;;;;;;;;;;;5064583;28;19924;-79
2022/02/27 07:20:22;;;;;;;;;;;;;;;;;;5059925;28;19927;-79
2022/02/27 07:22:47;;;;;;;;;;;;;;;;;;5036097;28;19988;-80
2022/02/27 07:25:13;;;;;;;;;;;;;;;;;;5055480;28;19927;-79
2022/02/27 07:27:38;;;;;;;;;;;;;;;;;;5058120;28;20356;-80
2022/02/27 07:30:04;;;;;;;;;;;;;;;;;;5070852;28;20325;-80
2022/02/27 07:32:30;;;;;;;;;;;;;;;;;;5060314;28;20356;-79
2022/02/27 07:34:56;;;;;;;;;;;;;;;;;;5057702;28;19928;-81
2022/02/27 07:37:21;;;;;;;;;;;;;;;;;;5055423;28;19917;-81
2022/02/27 07:39:47;;;;;;;;;;;;;;;;;;5055843;28;20016;-79
2022/02/27 07:42:12;;;;;;;;;;;;;;;;;;5055084;28;19999;-80
2022/02/27 07:44:38;;;;;;;;;;;;;;;;;;5061970;28;19917;-81
2022/02/27 07:47:03;;;;;;;;;;;;;;;;;;5074586;28;19920;-81
2022/02/27 07:49:29;;;;;;;;;;;;;;;;;;5075385;28;20010;-80
2022/02/27 07:51:54;;;;;;;;;;;;;;;;;;5075289;28;19916;-80
2022/02/27 07:54:20;;;;;;;;;;;;;;;;;;5056684;28;19923;-78
2022/02/27 07:56:46;;;;;;;;;;;;;;;;;;5073440;28;20507;-78
2022/02/27 07:59:11;;;;;;;;;;;;;;;;;;5074981;28;20395;-79
2022/02/27 08:01:37;;;;;;;;;;;;;;;;;;5075377;28;19917;-78
2022/02/27 08:04:02;;;;;;;;;;;;;;;;;;5070938;28;19946;-79
2022/02/27 08:06:28;;;;;;;;;;;;;;;;;;5072272;28;19960;-79
2022/02/27 08:08:55;;;;;;;;;;;;;;;;;;5063516;28;20015;-79
2022/02/27 08:11:20;;;;;;;;;;;;;;;;;;5058839;28;19925;-79
2022/02/27 08:13:46;;;;;;;;;;;;;;;;;;5074544;28;20011;-80
2022/02/27 08:16:11;;;;;;;;;;;;;;;;;;5066935;28;19920;-80
2022/02/27 08:18:37;;;;;;;;;;;;;;;;;;5066071;28;19917;-78
2022/02/27 08:21:03;;;;;;;;;;;;;;;;;;5066478;28;20321;-79
2022/02/27 08:23:28;;;;;;;;;;;;;;;;;;5072923;28;20425;-77
2022/02/27 08:25:55;;;;;;;;;;;;;;;;;;5054359;28;20011;-77
2022/02/27 08:28:21;;;;;;;;;;;;;;;;;;5074467;28;19917;-78
2022/02/27 08:30:47;;;;;;;;;;;;;;;;;;5074375;28;19921;-76
2022/02/27 08:33:13;;;;;;;;;;;;;;;;;;5072180;28;19920;-79
2022/02/27 08:35:38;;;;;;;;;;;;;;;;;;5074363;28;19923;-76
2022/02/27 08:38:04;;;;;;;;;;;;;;;;;;5074228;28;19943;-76
2022/02/27 08:40:29;;;;;;;;;;;;;;;;;;5074283;28;20275;-76
2022/02/27 08:42:56;;;;;;;;;;;;;;;;;;5074439;28;19917;-75
2022/02/27 08:45:22;;;;;;;;;;;;;;;;;;5074328;28;19962;-76
2022/02/27 08:47:47;;;;;;;;;;;;;;;;;;5074054;28;19917;-77
2022/02/27 08:50:13;;;;;;;;;;;;;;;;;;5072503;28;19920;-75
2022/02/27 08:52:38;;;;;;;;;;;;;;;;;;5068494;28;19920;-77
2022/02/27 08:55:05;;;;;;;;;;;;;;;;;;5073320;28;20288;-76
2022/02/27 08:57:30;;;;;;;;;;;;;;;;;;5071935;28;19974;-76
2022/02/27 08:59:55;;;;;;;;;;;;;;;;;;5066623;28;19956;-77
2022/02/27 09:02:21;;;;;;;;;;;;;;;;;;5062022;28;19924;-78
2022/02/27 09:04:46;;;;;;;;;;;;;;;;;;5060817;28;19924;-76
2022/02/27 09:07:11;;;;;;;;;;;;;;;;;;5069519;28;19932;-76
2022/02/27 09:09:37;;;;;;;;;;;;;;;;;;5073912;28;20281;-77
2022/02/27 09:12:08;;;;;;;;;;;;;;;;;;5064449;28;19960;-77
2022/02/27 09:14:34;;;;;;;;;;;;;;;;;;5071919;28;19925;-76
2022/02/27 09:17:00;;;;;;;;;;;;;;;;;;5066154;28;19986;-76
2022/02/27 09:19:26;;;;;;;;;;;;;;;;;;5059931;28;19920;-79
2022/02/27 09:21:53;;;;;;;;;;;;;;;;;;5069774;28;21255;-77
2022/02/27 09:24:18;;;;;;;;;;;;;;;;;;5059605;28;19917;-76
2022/02/27 09:26:45;;;;;;;;;;;;;;;;;;5053755;28;19921;-77
2022/02/27 09:29:11;;;;;;;;;;;;;;;;;;5053645;28;20281;-78
2022/02/27 09:31:36;;;;;;;;;;;;;;;;;;5058848;28;19917;-77
2022/02/27 09:34:02;;;;;;;;;;;;;;;;;;5072222;28;19955;-75
2022/02/27 09:36:27;;;;;;;;;;;;;;;;;;5066506;28;19920;-76
2022/02/27 09:38:52;;;;;;;;;;;;;;;;;;5068030;28;20126;-77
2022/02/27 09:41:18;;;;;;;;;;;;;;;;;;5067438;28;19920;-79
2022/02/27 09:43:50;;;;;;;;;;;;;;;;;;5073664;28;19920;-76
2022/02/27 09:46:16;;;;;;;;;;;;;;;;;;5072141;28;19921;-79
2022/02/27 09:48:41;;;;;;;;;;;;;;;;;;5072384;28;19920;-77
2022/02/27 09:51:07;;;;;;;;;;;;;;;;;;5072303;28;19925;-78
2022/02/27 09:53:32;;;;;;;;;;;;;;;;;;5053605;28;19932;-78
2022/02/27 09:55:57;;;;;;;;;;;;;;;;;;5068557;28;20270;-79
2022/02/27 09:58:23;;;;;;;;;;;;;;;;;;5068791;28;19925;-79
2022/02/27 10:00:48;;;;;;;;;;;;;;;;;;5073224;28;20379;-79
2022/02/27 10:03:15;;;;;;;;;;;;;;;;;;5072545;28;20376;-80
2022/02/27 10:05:45;;;;;;;;;;;;;;;;;;5069079;28;19920;-78
2022/02/27 10:08:11;;;;;;;;;;;;;;;;;;5070719;28;19928;-79
2022/02/27 10:10:40;;;;;;;;;;;;;;;;;;5073020;28;19955;-80
2022/02/27 10:13:08;;;;;;;;;;;;;;;;;;5069175;28;19921;-82
2022/02/27 10:15:34;;;;;;;;;;;;;;;;;;5066012;28;19924;-76
2022/02/27 10:18:12;;;;;;;;;;;;;;;;;;5076856;28;20003;-76
2022/02/27 10:20:38;;;;;;;;;;;;;;;;;;5070662;28;19920;-77
2022/02/27 10:23:04;;;;;;;;;;;;;;;;;;5074910;28;19923;-76
2022/02/27 10:25:30;;;;;;;;;;;;;;;;;;5077132;28;19916;-77
2022/02/27 10:28:00;;;;;;;;;;;;;;;;;;5076954;28;19969;-78
2022/02/27 10:30:37;;;;;;;;;;;;;;;;;;5070029;28;19928;-79
2022/02/27 10:33:04;;;;;;;;;;;;;;;;;;5076684;28;19916;-76
2022/02/27 10:35:32;;;;;;;;;;;;;;;;;;5076747;28;19912;-76
2022/02/27 10:37:57;;;;;;;;;;;;;;;;;;5076550;28;19917;-76
2022/02/27 10:40:33;;;;;;;;;;;;;;;;;;5076614;28;19920;-77
2022/02/27 10:43:05;;;;;;;;;;;;;;;;;;5059549;28;20296;-78
2022/02/27 10:45:31;;;;;;;;;;;;;;;;;;5076257;28;19924;-78
2022/02/27 10:48:07;;;;;;;;;;;;;;;;;;5069064;28;19920;-78
2022/02/27 10:50:33;;;;;;;;;;;;;;;;;;5067394;28;19924;-78
2022/02/27 10:52:58;;;;;;;;;;;;;;;;;;5056291;28;19916;-76
2022/02/27 10:55:24;;;;;;;;;;;;;;;;;;5068580;28;19924;-79
2022/02/27 10:57:50;;;;;;;;;;;;;;;;;;5076366;28;19950;-77
2022/02/27 11:00:18;;;;;;;;;;;;;;;;;;5076108;28;19923;-79
2022/02/27 11:02:44;;;;;;;;;;;;;;;;;;5074336;28;19964;-77
2022/02/27 11:05:11;;;;;;;;;;;;;;;;;;5073195;28;19927;-77
2022/02/27 11:07:37;;;;;;;;;;;;;;;;;;5073503;28;19944;-80
2022/02/27 11:10:04;;;;;;;;;;;;;;;;;;5074962;28;19951;-79
2022/02/27 11:12:30;;;;;;;;;;;;;;;;;;5074228;28;20315;-79
2022/02/27 11:14:55;;;;;;;;;;;;;;;;;;5074559;28;19927;-79
2022/02/27 11:17:23;;;;;;;;;;;;;;;;;;5073848;28;19920;-79
2022/02/27 11:19:49;;;;;;;;;;;;;;;;;;5073011;28;20007;-78
2022/02/27 11:22:15;;;;;;;;;;;;;;;;;;5071503;28;19925;-78
2022/02/27 11:24:42;;;;;;;;;;;;;;;;;;5072384;28;19998;-80
2022/02/27 11:27:08;;;;;;;;;;;;;;;;;;5069382;28;19920;-81
2022/02/27 11:29:34;;;;;;;;;;;;;;;;;;5073448;28;20354;-81
2022/02/27 11:32:00;;;;;;;;;;;;;;;;;;5073689;28;20392;-80
2022/02/27 11:34:27;;;;;;;;;;;;;;;;;;5074070;28;20268;-80
2022/02/27 11:36:54;;;;;;;;;;;;;;;;;;5075740;28;19923;-81
2022/02/27 11:42:04;;;;;;;;;;;;;;;;;;5074545;28;19978;-79
2022/02/27 11:44:36;;;;;;;;;;;;;;;;;;5075400;28;19920;-80
2022/02/27 11:47:09;;;;;;;;;;;;;;;;;;5075600;28;19921;-80
2022/02/27 11:49:39;;;;;;;;;;;;;;;;;;5057475;28;19916;-80
2022/02/27 11:52:07;;;;;;;;;;;;;;;;;;5070907;28;19925;-79
2022/02/27 11:54:37;;;;;;;;;;;;;;;;;;5073114;28;19920;-84
2022/02/27 11:57:09;;;;;;;;;;;;;;;;;;5074357;28;20282;-80
2022/02/27 11:59:51;;;;;;;;;;;;;;;;;;5073816;28;19920;-86
2022/02/27 12:02:19;;;;;;;;;;;;;;;;;;5073662;28;20331;-78
2022/02/27 12:04:49;;;;;;;;;;;;;;;;;;5072422;28;19928;-79
2022/02/27 12:07:14;;;;;;;;;;;;;;;;;;5069679;28;19978;-79
2022/02/27 12:09:46;;;;;;;;;;;;;;;;;;5072318;28;20330;-79
2022/02/27 12:12:30;;;;;;;;;;;;;;;;;;5065728;28;20349;-79
2022/02/27 12:15:15;;;;;;;;;;;;;;;;;;5073344;28;20373;-79
2022/02/27 12:17:53;;;;;;;;;;;;;;;;;;5071885;28;20356;-82
2022/02/27 12:20:37;;;;;;;;;;;;;;;;;;5071416;28;19973;-79
2022/02/27 12:23:06;;;;;;;;;;;;;;;;;;5069967;28;20442;-81
2022/02/27 12:33:52;;;;;;;;;;;;;;;;;;5817092;23;20372;-82
2022/02/27 12:36:20;;;;;;;;;;;;;;;;;;5094961;28;19920;-82
2022/02/27 12:38:47;;;;;;;;;;;;;;;;;;5091599;28;19924;-84
2022/02/27 12:52:00;;;;;;;;;;;;;;;;;;5096397;28;19969;-84
2022/02/27 12:54:34;;;;;;;;;;;;;;;;;;5064893;28;19977;-83
2022/02/27 13:05:11;;;;;;;;;;;;;;;;;;5074428;28;19924;-83
2022/02/27 13:07:37;;;;;;;;;;;;;;;;;;5075371;28;20042;-86
2022/02/27 13:10:02;;;;;;;;;;;;;;;;;;5074257;28;19959;-83
2022/02/27 13:12:29;;;;;;;;;;;;;;;;;;5073945;28;19916;-81
2022/02/27 13:14:58;;;;;;;;;;;;;;;;;;5074309;28;19943;-82
2022/02/27 13:17:28;;;;;;;;;;;;;;;;;;5074592;28;19920;-84
2022/02/27 13:19:54;;;;;;;;;;;;;;;;;;5072401;28;19932;-84
2022/02/27 13:22:27;;;;;;;;;;;;;;;;;;5071202;28;19963;-83
2022/02/27 13:24:55;;;;;;;;;;;;;;;;;;5068554;28;19927;-85
2022/02/27 13:27:25;;;;;;;;;;;;;;;;;;5053907;28;19917;-82
2022/02/27 13:29:53;;;;;;;;;;;;;;;;;;5053599;28;19917;-79
2022/02/27 13:32:19;;;;;;;;;;;;;;;;;;5052003;28;19925;-83
2022/02/27 13:34:46;;;;;;;;;;;;;;;;;;5053401;28;19928;-80
2022/02/27 13:37:11;;;;;;;;;;;;;;;;;;5063086;28;19920;-80
2022/02/27 13:39:37;;;;;;;;;;;;;;;;;;5073562;28;19995;-80
2022/02/27 13:42:03;;;;;;;;;;;;;;;;;;5057716;28;19927;-80
2022/02/27 13:44:28;;;;;;;;;;;;;;;;;;5064154;28;19918;-80
2022/02/27 13:46:54;;;;;;;;;;;;;;;;;;5077717;28;19928;-80
2022/02/27 13:49:21;;;;;;;;;;;;;;;;;;5077812;28;19920;-81
2022/02/27 13:51:46;;;;;;;;;;;;;;;;;;5077542;28;19923;-80
2022/02/27 13:54:18;;;;;;;;;;;;;;;;;;5077720;28;19916;-82
2022/02/27 13:56:58;;;;;;;;;;;;;;;;;;5077573;28;19923;-80
2022/02/27 13:59:24;;;;;;;;;;;;;;;;;;5078184;28;19920;-80
2022/02/27 14:01:58;;;;;;;;;;;;;;;;;;5076155;28;20395;-81
2022/02/27 14:04:23;;;;;;;;;;;;;;;;;;5076597;28;19928;-80
2022/02/27 14:06:50;;;;;;;;;;;;;;;;;;5076553;28;19936;-80
2022/02/27 14:09:15;;;;;;;;;;;;;;;;;;5076579;28;20372;-79
2022/02/27 14:11:41;;;;;;;;;;;;;;;;;;5076443;28;19916;-80
2022/02/27 14:14:07;;;;;;;;;;;;;;;;;;5076621;28;19930;-80
2022/02/27 14:16:34;;;;;;;;;;;;;;;;;;5077390;28;19917;-82
2022/02/27 14:19:00;;;;;;;;;;;;;;;;;;5077331;28;20284;-78
2022/02/27 14:21:27;;;;;;;;;;;;;;;;;;5077474;28;19916;-81
2022/02/27 14:23:54;;;;;;;;;;;;;;;;;;5077178;28;19934;-80
2022/02/27 14:26:19;;;;;;;;;;;;;;;;;;5077116;28;19995;-82
2022/02/27 14:28:55;;;;;;;;;;;;;;;;;;5077192;28;20359;-82
2022/02/27 14:31:32;;;;;;;;;;;;;;;;;;5078567;28;19917;-83
2022/02/27 14:33:59;;;;;;;;;;;;;;;;;;5078088;28;19923;-80
2022/02/27 14:36:24;;;;;;;;;;;;;;;;;;5077298;28;19912;-80
2022/02/27 14:38:52;;;;;;;;;;;;;;;;;;5075584;28;19939;-80
2022/02/27 14:41:21;;;;;;;;;;;;;;;;;;5077049;28;19917;-80
2022/02/27 14:43:47;;;;;;;;;;;;;;;;;;5077055;28;19938;-82
2022/02/27 14:46:12;;;;;;;;;;;;;;;;;;5077008;28;19916;-80
2022/02/27 14:48:39;;;;;;;;;;;;;;;;;;5076795;28;20399;-80
2022/02/27 14:51:05;;;;;;;;;;;;;;;;;;5077032;28;19916;-81
2022/02/27 14:53:30;;;;;;;;;;;;;;;;;;5077225;28;19917;-81
2022/02/27 14:55:56;;;;;;;;;;;;;;;;;;5076169;28;20395;-82
2022/02/27 14:58:21;;;;;;;;;;;;;;;;;;5076617;28;19962;-80
2022/02/27 15:00:47;;;;;;;;;;;;;;;;;;5076592;28;20395;-80
2022/02/27 15:03:18;;;;;;;;;;;;;;;;;;5076435;28;19916;-80
2022/02/27 15:05:43;;;;;;;;;;;;;;;;;;5076770;28;19924;-80
2022/02/27 15:08:09;;;;;;;;;;;;;;;;;;5076642;28;19920;-83
2022/02/27 15:10:34;;;;;;;;;;;;;;;;;;5076228;28;19923;-81
2022/02/27 15:13:00;;;;;;;;;;;;;;;;;;5076356;28;19921;-79
2022/02/27 15:15:26;;;;;;;;;;;;;;;;;;5076480;28;19916;-79
2022/02/27 15:17:52;;;;;;;;;;;;;;;;;;5076243;28;20284;-80
2022/02/27 15:20:17;;;;;;;;;;;;;;;;;;5076126;28;19924;-79
2022/02/27 15:22:43;;;;;;;;;;;;;;;;;;5075937;28;19917;-80
2022/02/27 15:25:08;;;;;;;;;;;;;;;;;;5074817;28;19972;-79
2022/02/27 15:27:34;;;;;;;;;;;;;;;;;;5076056;28;19917;-79
2022/02/27 15:30:01;;;;;;;;;;;;;;;;;;5076130;28;19927;-80
2022/02/27 15:32:27;;;;;;;;;;;;;;;;;;5074874;28;19923;-81
2022/02/27 15:34:52;;;;;;;;;;;;;;;;;;5076072;28;20430;-80
2022/02/27 15:37:18;;;;;;;;;;;;;;;;;;5075904;28;19917;-79
2022/02/27 15:39:43;;;;;;;;;;;;;;;;;;5075988;28;19923;-79
2022/02/27 15:42:09;;;;;;;;;;;;;;;;;;5075826;28;20349;-81
2022/02/27 15:44:34;;;;;;;;;;;;;;;;;;5075577;28;20380;-81
2022/02/27 15:47:00;;;;;;;;;;;;;;;;;;5075673;28;19927;-82
2022/02/27 15:49:25;;;;;;;;;;;;;;;;;;5075778;28;19954;-82
2022/02/27 15:51:51;;;;;;;;;;;;;;;;;;5075568;28;19923;-79
2022/02/27 15:54:17;;;;;;;;;;;;;;;;;;5075622;28;19916;-79
2022/02/27 15:56:42;;;;;;;;;;;;;;;;;;5075119;28;19916;-81
2022/02/27 15:59:08;;;;;;;;;;;;;;;;;;5075101;28;19994;-80
2022/02/27 16:01:34;;;;;;;;;;;;;;;;;;5075143;28;19986;-81
2022/02/27 16:03:59;;;;;;;;;;;;;;;;;;5075638;28;19920;-80
2022/02/27 16:06:25;;;;;;;;;;;;;;;;;;5074613;28;19962;-79
2022/02/27 16:08:50;;;;;;;;;;;;;;;;;;5073734;28;20287;-80
2022/02/27 16:11:16;;;;;;;;;;;;;;;;;;5075244;28;19916;-82
2022/02/27 16:13:44;;;;;;;;;;;;;;;;;;5076504;28;19916;-86
2022/02/27 16:16:11;;;;;;;;;;;;;;;;;;5075684;28;19920;-85
2022/02/27 16:18:38;;;;;;;;;;;;;;;;;;5073736;28;19916;-79
2022/02/27 16:21:04;;;;;;;;;;;;;;;;;;5073665;28;20274;-82
2022/02/27 16:23:29;;;;;;;;;;;;;;;;;;5074572;28;19927;-82
2022/02/27 16:25:56;;;;;;;;;;;;;;;;;;5073153;28;20293;-86
2022/02/27 16:28:21;;;;;;;;;;;;;;;;;;5074559;28;20280;-81
2022/02/27 16:30:47;;;;;;;;;;;;;;;;;;5074416;28;19920;-83
2022/02/27 16:33:12;;;;;;;;;;;;;;;;;;5074403;28;20406;-80
2022/02/27 16:35:38;;;;;;;;;;;;;;;;;;5074419;28;19916;-78
2022/02/27 16:38:03;;;;;;;;;;;;;;;;;;5074224;28;19923;-78
2022/02/27 16:40:31;;;;;;;;;;;;;;;;;;5070616;28;19924;-83
2022/02/27 16:42:57;;;;;;;;;;;;;;;;;;5054299;28;19963;-82
2022/02/27 16:45:23;;;;;;;;;;;;;;;;;;5052947;28;19923;-78
2022/02/27 16:47:48;;;;;;;;;;;;;;;;;;5054232;28;19917;-77
2022/02/27 16:50:14;;;;;;;;;;;;;;;;;;5054119;28;20376;-82
2022/02/27 16:52:39;;;;;;;;;;;;;;;;;;5056373;28;19982;-82
2022/02/27 16:55:05;;;;;;;;;;;;;;;;;;5066578;28;19973;-81
2022/02/27 16:57:30;;;;;;;;;;;;;;;;;;5054182;28;19971;-81
2022/02/27 16:59:56;;;;;;;;;;;;;;;;;;5054401;28;19917;-82
2022/02/27 17:02:21;;;;;;;;;;;;;;;;;;5054613;28;19917;-81
2022/02/27 17:04:48;;;;;;;;;;;;;;;;;;5052617;28;19925;-81
2022/02/27 17:07:14;;;;;;;;;;;;;;;;;;5054215;28;19941;-84
2022/02/27 17:09:39;;;;;;;;;;;;;;;;;;5055258;28;20376;-82